createdAt,value
2022-08-10T00:01:51.354Z,15.41
2022-08-10T00:04:21.502Z,15.34
2022-08-10T00:06:50.449Z,15.34
2022-08-10T00:09:19.938Z,15.34
2022-08-10T00:11:48.040Z,15.15
2022-08-10T00:14:16.259Z,15.16
2022-08-10T00:16:44.349Z,15.17
2022-08-10T00:19:12.346Z,15.04
2022-08-10T00:21:40.599Z,15.01
2022-08-10T00:24:09.356Z,14.87
2022-08-10T00:27:52.593Z,15.00
2022-08-10T00:29:26.786Z,15.02
2022-08-10T00:31:58.016Z,15.02
2022-08-10T00:34:27.556Z,14.83
2022-08-10T00:36:55.648Z,14.86
2022-08-10T00:39:23.926Z,14.92
2022-08-10T00:42:06.627Z,14.95
2022-08-10T00:44:37.122Z,14.81
2022-08-10T00:47:05.660Z,14.85
2022-08-10T00:49:33.866Z,14.78
2022-08-10T00:52:02.499Z,14.57
2022-08-10T00:54:30.959Z,14.55
2022-08-10T00:57:16.772Z,14.56
2022-08-10T00:59:59.525Z,14.57
2022-08-10T01:02:30.174Z,14.55
2022-08-10T01:05:02.144Z,14.48
2022-08-10T01:08:06.178Z,14.44
2022-08-10T01:10:42.201Z,14.45
2022-08-10T01:13:17.120Z,14.18
2022-08-10T01:15:56.149Z,14.19
2022-08-10T01:18:37.155Z,14.12
2022-08-10T01:21:30.980Z,14.03
2022-08-10T01:24:24.966Z,13.95
2022-08-10T01:27:13.829Z,13.76
2022-08-10T01:30:06.059Z,13.83
2022-08-10T01:32:41.847Z,13.88
2022-08-10T01:35:14.379Z,13.92
2022-08-10T01:37:51.974Z,13.91
2022-08-10T01:40:25.281Z,13.87
2022-08-10T01:42:54.617Z,13.88
2022-08-10T01:45:25.819Z,13.85
2022-08-10T01:48:16.791Z,13.82
2022-08-10T01:50:59.181Z,13.76
2022-08-10T01:53:40.003Z,13.68
2022-08-10T01:56:11.019Z,13.76
2022-08-10T01:58:39.928Z,13.78
2022-08-10T02:01:16.036Z,13.63
2022-08-10T02:04:04.129Z,13.73
2022-08-10T02:06:36.920Z,13.62
2022-08-10T02:09:07.211Z,13.57
2022-08-10T02:12:06.611Z,13.56
2022-08-10T02:14:25.528Z,13.53
2022-08-10T02:17:03.439Z,13.52
2022-08-10T02:19:31.969Z,13.55
2022-08-10T02:22:35.762Z,13.49
2022-08-10T02:25:01.082Z,13.26
2022-08-10T02:27:29.743Z,13.21
2022-08-10T02:29:59.201Z,13.34
2022-08-10T02:32:38.294Z,13.33
2022-08-10T02:35:20.134Z,13.34
2022-08-10T02:37:51.871Z,13.24
2022-08-10T02:45:12.255Z,13.23
2022-08-10T02:45:26.864Z,13.17
2022-08-10T02:49:03.631Z,13.06
2022-08-10T02:52:06.639Z,13.12
2022-08-10T02:54:29.781Z,13.07
2022-08-10T02:57:06.559Z,12.91
2022-08-10T02:59:41.501Z,12.93
2022-08-10T03:02:13.761Z,12.85
2022-08-10T03:04:54.580Z,12.90
2022-08-10T03:07:43.153Z,12.93
2022-08-10T03:10:17.023Z,12.90
2022-08-10T03:12:45.752Z,12.84
2022-08-10T03:15:15.554Z,12.81
2022-08-10T03:17:57.895Z,12.95
2022-08-10T03:20:38.341Z,12.82
2022-08-10T03:23:10.474Z,12.86
2022-08-10T03:25:53.408Z,12.77
2022-08-10T03:28:24.121Z,12.71
2022-08-10T03:30:52.677Z,12.81
2022-08-10T03:33:22.306Z,12.78
2022-08-10T03:36:42.355Z,12.79
2022-08-10T03:38:41.764Z,12.67
2022-08-10T03:41:16.361Z,12.71
2022-08-10T03:43:48.123Z,12.66
2022-08-10T03:46:17.780Z,12.52
2022-08-10T03:48:48.982Z,12.44
2022-08-10T03:51:20.680Z,12.49
2022-08-10T03:54:04.604Z,12.47
2022-08-10T03:56:36.016Z,12.50
2022-08-10T03:59:05.201Z,12.49
2022-08-10T04:02:46.138Z,12.43
2022-08-10T04:04:24.647Z,12.45
2022-08-10T04:06:56.020Z,12.38
2022-08-10T04:09:25.131Z,12.37
2022-08-10T04:12:11.869Z,12.39
2022-08-10T04:14:49.384Z,12.42
2022-08-10T04:17:18.600Z,12.42
2022-08-10T04:20:08.430Z,12.34
2022-08-10T04:22:38.193Z,12.40
2022-08-10T04:25:07.140Z,12.39
2022-08-10T04:27:35.438Z,12.35
2022-08-10T04:30:03.887Z,12.36
2022-08-10T04:32:32.692Z,12.37
2022-08-10T04:35:01.440Z,12.33
2022-08-10T04:37:30.160Z,12.43
2022-08-10T04:39:59.930Z,12.53
2022-08-10T04:42:28.339Z,12.50
2022-08-10T04:44:56.488Z,12.60
2022-08-10T04:47:57.703Z,12.69
2022-08-10T04:50:12.882Z,12.77
2022-08-10T04:52:44.490Z,12.85
2022-08-10T04:55:14.929Z,13.01
2022-08-10T04:57:43.120Z,13.06
2022-08-10T05:00:18.830Z,13.14
2022-08-10T05:02:47.934Z,13.26
2022-08-10T05:05:16.238Z,13.42
2022-08-10T05:07:54.329Z,13.64
2022-08-10T05:10:26.840Z,13.77
2022-08-10T05:12:56.378Z,13.99
2022-08-10T05:15:24.794Z,14.12
2022-08-10T05:18:08.241Z,14.30
2022-08-10T05:20:38.376Z,14.48
2022-08-10T05:23:07.505Z,14.66
2022-08-10T05:25:37.357Z,14.79
2022-08-10T05:28:07.143Z,14.94
2022-08-10T05:30:35.565Z,15.11
2022-08-10T05:33:08.533Z,15.27
2022-08-10T05:35:51.809Z,15.44
2022-08-10T05:38:27.424Z,15.55
2022-08-10T05:41:01.126Z,15.71
2022-08-10T05:43:29.235Z,15.94
2022-08-10T05:46:19.938Z,15.98
2022-08-10T05:48:59.012Z,15.98
2022-08-10T05:51:29.805Z,16.10
2022-08-10T05:54:02.155Z,16.24
2022-08-10T05:56:53.279Z,16.34
2022-08-10T06:00:32.781Z,16.54
2022-08-10T06:02:41.088Z,16.73
2022-08-10T06:05:08.002Z,16.78
2022-08-10T06:07:38.871Z,16.76
2022-08-10T06:10:10.361Z,16.84
2022-08-10T06:12:54.835Z,17.03
2022-08-10T06:15:50.567Z,17.26
2022-08-10T06:18:16.373Z,17.45
2022-08-10T06:20:44.883Z,17.58
2022-08-10T06:23:13.883Z,17.79
2022-08-10T06:26:11.092Z,17.98
2022-08-10T06:28:34.493Z,18.18
2022-08-10T06:31:03.323Z,18.31
2022-08-10T06:33:33.586Z,18.55
2022-08-10T06:36:02.483Z,18.63
2022-08-10T06:38:33.648Z,18.86
2022-08-10T06:41:03.962Z,18.99
2022-08-10T06:43:35.004Z,19.13
2022-08-10T06:46:08.623Z,19.09
2022-08-10T06:48:40.611Z,19.37
2022-08-10T06:51:10.173Z,19.45
2022-08-10T06:53:53.683Z,19.42
2022-08-10T06:56:37.605Z,19.54
2022-08-10T06:59:13.266Z,19.55
2022-08-10T07:01:54.050Z,19.59
2022-08-10T07:04:33.335Z,19.78
2022-08-10T07:07:04.592Z,19.88
2022-08-10T07:09:34.143Z,20.01
2022-08-10T07:12:08.671Z,20.21
2022-08-10T07:14:41.767Z,20.35
2022-08-10T07:17:26.851Z,20.54
2022-08-10T07:19:57.672Z,20.45
2022-08-10T07:23:01.546Z,20.59
2022-08-10T07:25:19.285Z,20.69
2022-08-10T07:28:00.129Z,20.78
2022-08-10T07:30:33.016Z,20.84
2022-08-10T07:33:02.569Z,20.87
2022-08-10T07:35:37.286Z,21.01
2022-08-10T07:38:16.939Z,21.20
2022-08-10T07:40:45.768Z,21.40
2022-08-10T07:43:14.613Z,21.50
2022-08-10T07:45:44.182Z,21.64
2022-08-10T07:48:22.332Z,21.43
2022-08-10T07:50:50.874Z,21.55
2022-08-10T07:53:21.421Z,21.53
2022-08-10T07:56:04.866Z,21.61
2022-08-10T07:58:48.071Z,21.62
2022-08-10T08:01:23.410Z,21.79
2022-08-10T08:04:05.041Z,21.99
2022-08-10T08:06:47.275Z,22.16
2022-08-10T08:09:15.435Z,22.26
2022-08-10T08:11:45.711Z,22.35
2022-08-10T08:14:14.864Z,22.39
2022-08-10T08:16:47.914Z,22.46
2022-08-10T08:19:37.010Z,22.29
2022-08-10T08:24:05.155Z,22.16
2022-08-10T08:24:54.554Z,22.17
2022-08-10T08:27:22.795Z,22.15
2022-08-10T08:29:53.054Z,22.32
2022-08-10T08:32:23.885Z,22.43
2022-08-10T08:34:56.114Z,22.50
2022-08-10T08:38:29.255Z,22.41
2022-08-10T08:40:20.446Z,22.37
2022-08-10T08:43:13.765Z,22.68
2022-08-10T08:46:01.861Z,22.93
2022-08-10T08:48:44.623Z,22.88
2022-08-10T08:52:11.384Z,23.00
2022-08-10T08:54:17.082Z,22.78
2022-08-10T08:56:55.326Z,22.81
2022-08-10T08:59:37.897Z,22.77
2022-08-10T09:02:19.805Z,22.84
2022-08-10T09:05:00.994Z,23.08
2022-08-10T09:08:02.889Z,23.08
2022-08-10T09:10:38.662Z,23.25
2022-08-10T09:13:11.912Z,23.26
2022-08-10T09:15:44.255Z,23.46
2022-08-10T09:18:17.620Z,23.56
2022-08-10T09:20:51.511Z,23.77
2022-08-10T09:24:01.456Z,23.93
2022-08-10T09:26:21.156Z,23.51
2022-08-10T09:29:00.403Z,23.58
2022-08-10T09:32:54.977Z,23.73
2022-08-10T09:36:22.105Z,24.09
2022-08-10T09:37:39.972Z,23.92
2022-08-10T09:40:57.352Z,24.29
2022-08-10T09:43:26.822Z,24.23
2022-08-10T09:46:00.504Z,24.21
2022-08-10T09:48:33.515Z,24.02
2022-08-10T09:51:44.233Z,24.12
2022-08-10T09:54:03.987Z,24.34
2022-08-10T09:56:38.293Z,24.48
2022-08-10T09:59:29.343Z,24.59
2022-08-10T10:02:22.575Z,24.68
2022-08-10T10:05:00.703Z,24.57
2022-08-10T10:07:30.012Z,24.42
2022-08-10T10:10:03.845Z,24.42
2022-08-10T10:12:41.765Z,24.52
2022-08-10T10:15:25.335Z,24.52
2022-08-10T10:18:28.766Z,24.55
2022-08-10T10:21:09.217Z,24.04
2022-08-10T10:24:15.575Z,23.68
2022-08-10T10:26:43.085Z,23.90
2022-08-10T10:29:55.505Z,24.48
2022-08-10T10:32:10.453Z,24.42
2022-08-10T10:34:45.385Z,23.80
2022-08-10T10:37:13.913Z,23.87
2022-08-10T10:39:45.476Z,23.69
2022-08-10T10:42:44.200Z,23.52
2022-08-10T10:45:19.321Z,23.62
2022-08-10T10:48:03.684Z,23.54
2022-08-10T10:50:38.544Z,23.47
2022-08-10T10:53:11.365Z,23.42
2022-08-10T10:56:13.603Z,23.37
2022-08-10T10:58:42.783Z,23.72
2022-08-10T11:01:16.373Z,24.36
2022-08-10T11:03:58.561Z,24.40
2022-08-10T11:06:40.834Z,24.39
2022-08-10T11:10:08.942Z,24.55
2022-08-10T11:12:18.284Z,24.75
2022-08-10T11:14:55.894Z,24.76
2022-08-10T11:17:27.473Z,25.07
2022-08-10T11:20:03.732Z,25.19
2022-08-10T11:22:37.879Z,25.58
2022-08-10T11:25:11.362Z,24.67
2022-08-10T11:27:49.063Z,24.55
2022-08-10T11:30:20.624Z,24.88
2022-08-10T11:32:58.415Z,24.91
2022-08-10T11:35:35.014Z,25.54
2022-08-10T11:38:31.745Z,25.83
2022-08-10T11:41:05.584Z,26.44
2022-08-10T11:43:57.624Z,26.04
2022-08-10T11:46:32.432Z,26.52
2022-08-10T11:49:07.404Z,26.51
2022-08-10T11:51:43.683Z,26.41
2022-08-10T11:54:20.335Z,26.26
2022-08-10T11:56:50.611Z,26.32
2022-08-10T11:59:36.721Z,26.65
2022-08-10T12:02:08.530Z,26.23
2022-08-10T12:04:37.565Z,27.10
2022-08-10T12:10:07.707Z,26.97
2022-08-10T12:10:10.474Z,26.31
2022-08-10T12:12:46.423Z,25.97
2022-08-10T12:15:18.564Z,25.77
2022-08-10T12:17:52.351Z,25.71
2022-08-10T12:20:28.074Z,25.74
2022-08-10T12:22:59.304Z,26.08
2022-08-10T12:25:56.578Z,26.86
2022-08-10T12:28:49.248Z,27.34
2022-08-10T12:31:13.506Z,27.97
2022-08-10T12:34:02.444Z,27.10
2022-08-10T12:36:38.080Z,25.81
2022-08-10T12:39:09.464Z,25.68
2022-08-10T12:41:43.490Z,25.31
2022-08-10T12:44:15.258Z,26.46
2022-08-10T12:46:51.565Z,29.86
2022-08-10T12:49:23.287Z,34.85
2022-08-10T12:51:55.022Z,36.56
2022-08-10T12:54:32.755Z,37.47
2022-08-10T12:57:03.624Z,35.62
2022-08-10T12:59:33.264Z,34.14
2022-08-10T13:02:13.947Z,34.56
2022-08-10T13:04:44.232Z,33.69
2022-08-10T13:08:25.153Z,30.43
2022-08-10T13:10:03.834Z,34.43
2022-08-10T13:12:38.093Z,37.84
2022-08-10T13:15:28.227Z,42.29
2022-08-10T13:18:04.755Z,41.88
2022-08-10T13:20:37.324Z,36.93
2022-08-10T13:23:17.187Z,31.51
2022-08-10T13:25:48.335Z,28.86
2022-08-10T13:28:37.518Z,28.51
2022-08-10T13:31:11.736Z,28.28
2022-08-10T13:34:36.568Z,27.37
2022-08-10T13:36:40.914Z,26.90
2022-08-10T13:39:28.935Z,28.00
2022-08-10T13:42:19.393Z,30.68
2022-08-10T13:45:00.795Z,35.00
2022-08-10T13:47:32.346Z,34.63
2022-08-10T13:50:33.508Z,39.69
2022-08-10T13:53:13.271Z,37.84
2022-08-10T13:55:53.530Z,35.28
2022-08-10T13:58:25.324Z,30.95
2022-08-10T14:00:55.936Z,29.64
2022-08-10T14:03:24.911Z,28.44
2022-08-10T14:05:54.855Z,28.83
2022-08-10T14:08:26.636Z,31.59
2022-08-10T14:11:08.643Z,32.46
2022-08-10T14:13:46.837Z,33.44
2022-08-10T14:16:15.462Z,35.97
2022-08-10T14:18:46.135Z,37.44
2022-08-10T14:21:14.930Z,36.52
2022-08-10T14:23:52.230Z,37.09
2022-08-10T14:26:23.895Z,36.23
2022-08-10T14:28:58.594Z,34.83
2022-08-10T14:31:33.736Z,33.19
2022-08-10T14:34:03.906Z,36.90
2022-08-10T14:36:39.534Z,38.51
2022-08-10T14:39:09.899Z,38.83
2022-08-10T14:42:01.130Z,39.06
2022-08-10T14:44:29.485Z,34.91
2022-08-10T14:47:01.324Z,34.25
2022-08-10T14:49:58.162Z,36.57
2022-08-10T14:52:26.764Z,36.31
2022-08-10T14:54:57.513Z,34.41
2022-08-10T14:58:16.756Z,33.29
2022-08-10T15:00:30.788Z,32.91
2022-08-10T15:03:03.988Z,34.63
2022-08-10T15:05:41.884Z,37.76
2022-08-10T15:08:10.517Z,36.89
2022-08-10T15:10:41.056Z,38.90
2022-08-10T15:13:33.572Z,39.37
2022-08-10T15:16:12.126Z,37.96
2022-08-10T15:18:43.453Z,37.91
2022-08-10T15:21:40.734Z,38.55
2022-08-10T15:24:15.515Z,37.76
2022-08-10T15:26:57.601Z,34.37
2022-08-10T15:29:27.043Z,33.32
2022-08-10T15:32:24.094Z,32.17
2022-08-10T15:35:10.248Z,31.02
2022-08-10T15:37:41.229Z,28.74
2022-08-10T15:40:23.744Z,27.70
2022-08-10T15:43:05.673Z,27.86
2022-08-10T15:46:06.396Z,27.23
2022-08-10T15:48:48.180Z,26.44
2022-08-10T15:51:23.234Z,26.53
2022-08-10T15:54:03.231Z,26.63
2022-08-10T15:56:35.076Z,26.67
2022-08-10T15:59:09.865Z,26.38
2022-08-10T16:02:14.322Z,26.30
2022-08-10T16:04:47.718Z,26.21
2022-08-10T16:07:20.779Z,26.46
2022-08-10T16:10:24.729Z,26.38
2022-08-10T16:12:59.162Z,26.42
2022-08-10T16:15:31.198Z,26.80
2022-08-10T16:18:02.780Z,27.25
2022-08-10T16:20:33.822Z,27.10
2022-08-10T16:23:22.734Z,27.12
2022-08-10T16:25:58.407Z,27.33
2022-08-10T16:28:33.255Z,26.68
2022-08-10T16:31:06.164Z,25.88
2022-08-10T16:33:53.763Z,25.61
2022-08-10T16:36:23.750Z,25.64
2022-08-10T16:38:52.456Z,25.42
2022-08-10T16:42:02.914Z,24.97
2022-08-10T16:44:11.795Z,24.56
2022-08-10T16:46:44.214Z,24.34
2022-08-10T16:49:13.396Z,24.35
2022-08-10T16:51:42.234Z,24.28
2022-08-10T16:54:10.695Z,24.24
2022-08-10T16:56:48.623Z,24.21
2022-08-10T16:59:20.700Z,23.99
2022-08-10T17:01:54.596Z,23.90
2022-08-10T17:04:24.054Z,23.80
2022-08-10T17:06:56.612Z,23.79
2022-08-10T17:09:28.681Z,23.72
2022-08-10T17:11:58.345Z,23.68
2022-08-10T17:14:28.385Z,23.64
2022-08-10T17:17:00.497Z,23.55
2022-08-10T17:19:30.213Z,23.46
2022-08-10T17:22:00.110Z,23.21
2022-08-10T17:24:33.014Z,22.91
2022-08-10T17:28:04.317Z,21.52
2022-08-10T17:30:02.755Z,20.73
2022-08-10T17:32:44.448Z,20.27
2022-08-10T17:35:14.866Z,20.32
2022-08-10T17:37:46.843Z,20.38
2022-08-10T17:40:17.915Z,20.68
2022-08-10T17:42:47.565Z,20.89
2022-08-10T17:45:46.107Z,21.15
2022-08-10T17:48:10.048Z,21.21
2022-08-10T17:50:39.415Z,21.15
2022-08-10T17:53:12.719Z,21.40
2022-08-10T17:55:41.780Z,21.33
2022-08-10T17:58:13.928Z,21.51
2022-08-10T18:00:43.793Z,21.46
2022-08-10T18:03:25.621Z,21.56
2022-08-10T18:05:56.243Z,21.60
2022-08-10T18:08:27.508Z,21.69
2022-08-10T18:10:58.440Z,21.70
2022-08-10T18:13:55.701Z,21.64
2022-08-10T18:16:24.649Z,21.60
2022-08-10T18:19:00.581Z,21.53
2022-08-10T18:21:31.359Z,21.48
2022-08-10T18:24:05.040Z,21.48
2022-08-10T18:26:37.058Z,21.37
2022-08-10T18:29:08.108Z,21.30
2022-08-10T18:31:37.624Z,21.24
2022-08-10T18:34:12.952Z,21.26
2022-08-10T18:36:42.750Z,21.33
2022-08-10T18:39:12.376Z,21.23
2022-08-10T18:42:00.185Z,21.16
2022-08-10T18:44:35.398Z,21.13
2022-08-10T18:47:05.947Z,21.11
2022-08-10T18:49:55.828Z,21.04
2022-08-10T18:52:26.820Z,20.92
2022-08-10T18:55:02.189Z,20.90
2022-08-10T18:57:42.938Z,20.72
2022-08-10T19:00:12.742Z,20.66
2022-08-10T19:03:07.359Z,20.67
2022-08-10T19:05:55.829Z,20.50
2022-08-10T19:09:09.565Z,20.34
2022-08-10T19:12:06.362Z,20.20
2022-08-10T19:14:59.257Z,20.14
2022-08-10T19:18:03.051Z,19.99
2022-08-10T19:20:29.658Z,19.98
2022-08-10T19:23:06.289Z,19.97
2022-08-10T19:26:41.077Z,20.05
2022-08-10T19:28:32.279Z,19.98
2022-08-10T19:31:18.520Z,20.00
2022-08-10T19:34:11.324Z,19.95
2022-08-10T19:36:46.210Z,19.88
2022-08-10T19:39:23.526Z,19.83
2022-08-10T19:41:56.796Z,19.85
2022-08-10T19:44:29.439Z,19.71
2022-08-10T19:47:03.706Z,19.63
2022-08-10T19:49:39.692Z,19.61
2022-08-10T19:52:11.898Z,19.71
2022-08-10T19:54:48.270Z,19.70
2022-08-10T19:57:29.720Z,19.65
2022-08-10T20:00:18.946Z,19.56
2022-08-10T20:02:54.387Z,19.60
2022-08-10T20:05:29.636Z,19.64
2022-08-10T20:08:03.291Z,19.62
2022-08-10T20:10:38.805Z,19.70
2022-08-10T20:13:13.006Z,19.69
2022-08-10T20:15:44.500Z,19.72
2022-08-10T20:18:21.970Z,19.74
2022-08-10T20:20:51.400Z,19.66
2022-08-10T20:23:22.345Z,19.63
2022-08-10T20:25:57.663Z,19.69
2022-08-10T20:28:32.357Z,19.75
2022-08-10T20:31:16.989Z,19.74
2022-08-10T20:33:58.591Z,19.59
2022-08-10T20:36:32.110Z,19.50
2022-08-10T20:39:11.597Z,19.57
2022-08-10T20:41:49.980Z,19.63
2022-08-10T20:44:30.349Z,19.73
2022-08-10T20:47:13.440Z,19.82
2022-08-10T20:49:45.500Z,19.85
2022-08-10T20:52:14.241Z,19.89
2022-08-10T20:54:48.551Z,19.99
2022-08-10T20:57:54.646Z,19.85
2022-08-10T21:00:25.638Z,19.85
2022-08-10T21:03:31.684Z,19.74
2022-08-10T21:06:10.609Z,19.63
2022-08-10T21:08:48.213Z,19.64
2022-08-10T21:11:21.749Z,19.60
2022-08-10T21:14:08.339Z,19.47
2022-08-10T21:16:47.483Z,19.48
2022-08-10T21:19:30.391Z,19.38
2022-08-10T21:22:09.919Z,19.43
2022-08-10T21:24:44.221Z,19.35
2022-08-10T21:27:33.343Z,19.29
2022-08-10T21:30:09.189Z,19.26
2022-08-10T21:32:49.111Z,19.18
2022-08-10T21:35:36.847Z,19.29
2022-08-10T21:38:08.047Z,19.24
2022-08-10T21:41:17.380Z,19.28
2022-08-10T21:44:03.028Z,19.20
2022-08-10T21:47:01.703Z,19.07
2022-08-10T21:50:03.888Z,19.17
2022-08-10T21:53:04.395Z,19.22
2022-08-10T21:56:00.729Z,19.17
2022-08-10T21:58:49.880Z,19.14
2022-08-10T22:01:40.248Z,19.15
2022-08-10T22:04:27.330Z,19.34
2022-08-10T22:07:13.888Z,19.37
2022-08-10T22:10:04.281Z,19.27
2022-08-10T22:12:56.998Z,19.28
2022-08-10T22:16:09.692Z,19.16
2022-08-10T22:18:58.832Z,19.14
2022-08-10T22:21:58.432Z,19.14
2022-08-10T22:24:58.672Z,19.06
2022-08-10T22:27:48.960Z,19.12
2022-08-10T22:30:36.091Z,19.09
2022-08-10T22:33:43.030Z,19.15
2022-08-10T22:36:44.450Z,19.16
2022-08-10T22:40:07.080Z,19.21
2022-08-10T22:42:59.486Z,19.24
2022-08-10T22:45:54.199Z,19.28
2022-08-10T22:48:40.273Z,19.30
2022-08-10T22:51:12.690Z,19.23
2022-08-10T22:54:02.404Z,19.24
2022-08-10T22:56:49.507Z,19.21
2022-08-10T22:59:28.409Z,19.13
2022-08-10T23:02:08.402Z,19.13
2022-08-10T23:04:44.988Z,19.20
2022-08-10T23:07:21.507Z,19.16
2022-08-10T23:09:59.587Z,19.12
2022-08-10T23:12:35.870Z,19.24
2022-08-10T23:15:22.850Z,19.27
2022-08-10T23:18:10.386Z,19.23
2022-08-10T23:20:39.665Z,19.19
2022-08-10T23:23:10.153Z,19.11
2022-08-10T23:26:00.018Z,19.10
2022-08-10T23:28:39.283Z,19.12
2022-08-10T23:31:59.106Z,19.03
2022-08-10T23:34:12.847Z,19.04
2022-08-10T23:36:41.400Z,19.01
2022-08-10T23:39:25.517Z,19.02
2022-08-10T23:42:01.940Z,19.05
2022-08-10T23:44:39.547Z,18.98
2022-08-10T23:47:08.516Z,18.92
2022-08-10T23:49:37.501Z,18.93
2022-08-10T23:52:14.157Z,18.84
2022-08-10T23:54:48.976Z,18.85
2022-08-10T23:57:20.157Z,18.80
2022-08-10T23:59:59.476Z,18.66
